Time;durP1;ratioP1;P1;durP2;ratioP2;P2;SDS_P1;SDS_P2;PMS_P1;PMS_P2;Temp;Humidity;BMP_temperature;BMP_pressure;BME280_temperature;BME280_humidity;BME280_pressure;Samples;Min_cycle;Max_cycle;Signal;HPM_P1;HPM_P2
2023/11/21 00:00:12;;;;;;;15.90;9.25;;;;;;;;;;5052687;28;20123;-88
2023/11/21 00:02:40;;;;;;;17.20;9.02;;;;;;;;;;5045721;28;20033;-90
2023/11/21 00:05:08;;;;;;;15.57;9.20;;;;;;;;;;5049364;28;20029;-88
2023/11/21 00:07:33;;;;;;;15.13;9.38;;;;;;;;;;5046534;28;20040;-90
2023/11/21 00:09:59;;;;;;;16.98;9.75;;;;;;;;;;5049854;28;20383;-90
2023/11/21 00:12:24;;;;;;;16.67;9.70;;;;;;;;;;5059645;28;20032;-89
2023/11/21 00:14:50;;;;;;;20.95;11.05;;;;;;;;;;5037126;28;20059;-89
2023/11/21 00:17:15;;;;;;;18.67;11.38;;;;;;;;;;5035786;28;20433;-89
2023/11/21 00:19:42;;;;;;;17.88;9.95;;;;;;;;;;5051965;28;20040;-88
2023/11/21 00:22:08;;;;;;;18.42;10.57;;;;;;;;;;5069015;28;20033;-89
2023/11/21 00:24:34;;;;;;;18.75;10.65;;;;;;;;;;5050479;28;20037;-89
2023/11/21 00:27:00;;;;;;;15.90;10.10;;;;;;;;;;5054662;28;20032;-89
2023/11/21 00:29:25;;;;;;;16.60;9.75;;;;;;;;;;5048210;28;20040;-90
2023/11/21 00:31:51;;;;;;;16.13;9.50;;;;;;;;;;5086701;28;20056;-89
2023/11/21 00:34:17;;;;;;;18.48;10.20;;;;;;;;;;5073367;28;20060;-89
2023/11/21 00:36:42;;;;;;;18.52;9.93;;;;;;;;;;5074341;28;20044;-90
2023/11/21 00:39:08;;;;;;;17.58;9.93;;;;;;;;;;5072226;28;20029;-89
2023/11/21 00:41:34;;;;;;;15.88;9.95;;;;;;;;;;5049101;28;20028;-90
2023/11/21 00:44:00;;;;;;;17.10;9.77;;;;;;;;;;5099107;28;20024;-91
2023/11/21 00:46:28;;;;;;;21.30;11.05;;;;;;;;;;5075017;28;20020;-89
2023/11/21 00:48:54;;;;;;;15.32;9.32;;;;;;;;;;5055890;28;20474;-90
2023/11/21 00:51:20;;;;;;;16.73;10.43;;;;;;;;;;5063504;28;20051;-89
2023/11/21 00:53:47;;;;;;;16.00;9.68;;;;;;;;;;5074373;28;20030;-90
2023/11/21 00:56:13;;;;;;;15.50;9.57;;;;;;;;;;5057882;28;20082;-90
2023/11/21 00:58:38;;;;;;;16.85;9.70;;;;;;;;;;5053469;28;20028;-88
2023/11/21 01:01:04;;;;;;;17.73;10.50;;;;;;;;;;5039277;28;20036;-90
2023/11/21 01:03:30;;;;;;;17.67;10.50;;;;;;;;;;5054875;28;20040;-90
2023/11/21 01:05:55;;;;;;;15.77;9.68;;;;;;;;;;5057659;28;20028;-90
2023/11/21 01:08:21;;;;;;;17.58;10.57;;;;;;;;;;5055497;28;20033;-91
2023/11/21 01:10:46;;;;;;;17.77;10.23;;;;;;;;;;5077681;28;20028;-90
2023/11/21 01:13:15;;;;;;;16.52;9.95;;;;;;;;;;5054078;28;20496;-90
2023/11/21 01:15:41;;;;;;;17.38;9.85;;;;;;;;;;5071494;28;20032;-90
2023/11/21 01:18:08;;;;;;;16.15;9.45;;;;;;;;;;5065604;28;20048;-78
2023/11/21 01:20:34;;;;;;;20.63;11.20;;;;;;;;;;5070971;28;20033;-78
2023/11/21 01:22:59;;;;;;;22.85;11.60;;;;;;;;;;5068152;28;20036;-78
2023/11/21 01:25:25;;;;;;;18.55;9.93;;;;;;;;;;5052511;28;20032;-78
2023/11/21 01:27:51;;;;;;;20.90;11.35;;;;;;;;;;5066109;28;20032;-77
2023/11/21 01:30:17;;;;;;;22.90;11.20;;;;;;;;;;5068762;28;20024;-78
2023/11/21 01:32:43;;;;;;;19.65;9.65;;;;;;;;;;5052162;28;20454;-78
2023/11/21 01:35:10;;;;;;;22.05;11.13;;;;;;;;;;5056891;28;20036;-78
2023/11/21 01:37:35;;;;;;;19.58;10.27;;;;;;;;;;5074105;28;20502;-78
2023/11/21 01:40:02;;;;;;;18.15;10.48;;;;;;;;;;5066814;28;20074;-78
2023/11/21 01:42:29;;;;;;;20.13;10.65;;;;;;;;;;5067506;28;20025;-78
2023/11/21 01:44:55;;;;;;;18.77;10.32;;;;;;;;;;5072297;28;20059;-78
2023/11/21 01:47:21;;;;;;;19.40;9.60;;;;;;;;;;5069815;28;20029;-78
2023/11/21 01:49:47;;;;;;;22.67;10.75;;;;;;;;;;5050173;28;20028;-78
2023/11/21 01:52:13;;;;;;;22.73;10.68;;;;;;;;;;5063904;28;20029;-78
2023/11/21 01:54:38;;;;;;;22.58;10.68;;;;;;;;;;5053756;28;20086;-78
2023/11/21 01:57:06;;;;;;;25.42;11.02;;;;;;;;;;5070273;28;20436;-78
2023/11/21 01:59:37;;;;;;;18.58;10.85;;;;;;;;;;5071924;28;20031;-78
2023/11/21 02:02:04;;;;;;;19.85;10.40;;;;;;;;;;5066091;28;20020;-78
2023/11/21 02:04:31;;;;;;;21.75;11.55;;;;;;;;;;5065690;28;20048;-78
2023/11/21 02:06:57;;;;;;;26.38;12.50;;;;;;;;;;5074463;28;20036;-78
2023/11/21 02:09:27;;;;;;;20.23;11.38;;;;;;;;;;5057290;28;20504;-78
2023/11/21 02:11:56;;;;;;;18.33;10.85;;;;;;;;;;5076963;28;20038;-79
2023/11/21 02:14:22;;;;;;;18.73;11.00;;;;;;;;;;5062804;28;20075;-78
2023/11/21 02:16:51;;;;;;;16.55;10.30;;;;;;;;;;5076013;28;20141;-78
2023/11/21 02:19:29;;;;;;;16.73;10.73;;;;;;;;;;5072167;28;20033;-78
2023/11/21 02:22:00;;;;;;;15.15;9.82;;;;;;;;;;5069180;28;20033;-78
2023/11/21 02:24:27;;;;;;;19.23;10.02;;;;;;;;;;5059906;28;20070;-78
2023/11/21 02:26:52;;;;;;;17.88;10.02;;;;;;;;;;5058083;28;20602;-78
2023/11/21 02:29:28;;;;;;;17.23;10.85;;;;;;;;;;5067300;28;20037;-78
2023/11/21 02:31:55;;;;;;;16.15;10.45;;;;;;;;;;5068237;28;20024;-78
2023/11/21 02:34:21;;;;;;;17.73;10.57;;;;;;;;;;5067210;28;20028;-77
2023/11/21 02:36:51;;;;;;;18.65;10.93;;;;;;;;;;5066402;28;20044;-78
2023/11/21 02:39:17;;;;;;;15.73;9.80;;;;;;;;;;5076312;28;20114;-78
2023/11/21 02:41:43;;;;;;;18.55;10.65;;;;;;;;;;5063317;28;20032;-78
2023/11/21 02:44:09;;;;;;;17.77;10.35;;;;;;;;;;5072642;28;20524;-78
2023/11/21 02:46:36;;;;;;;19.23;10.95;;;;;;;;;;5066797;28;20108;-90
2023/11/21 02:49:06;;;;;;;15.38;9.73;;;;;;;;;;5055405;28;20082;-91
2023/11/21 02:51:32;;;;;;;15.60;9.50;;;;;;;;;;5051032;28;20033;-91
2023/11/21 02:53:58;;;;;;;15.13;9.68;;;;;;;;;;5070383;28;20047;-89
2023/11/21 02:56:26;;;;;;;16.98;10.52;;;;;;;;;;5046775;28;20021;-89
2023/11/21 02:58:52;;;;;;;17.55;10.10;;;;;;;;;;5052952;28;20051;-90
2023/11/21 03:01:18;;;;;;;15.75;9.75;;;;;;;;;;5071409;28;20028;-92
2023/11/21 03:03:44;;;;;;;20.63;10.70;;;;;;;;;;5070680;28;20089;-90
2023/11/21 03:06:09;;;;;;;14.85;8.85;;;;;;;;;;5057504;28;20385;-90
2023/11/21 03:08:35;;;;;;;16.30;9.98;;;;;;;;;;5055524;28;20036;-90
2023/11/21 03:11:02;;;;;;;15.40;10.27;;;;;;;;;;5066603;28;20464;-88
2023/11/21 03:13:28;;;;;;;14.75;9.73;;;;;;;;;;5050536;28;20041;-90
2023/11/21 03:15:54;;;;;;;14.38;9.35;;;;;;;;;;5044460;28;20105;-89
2023/11/21 03:18:21;;;;;;;14.98;9.38;;;;;;;;;;5049486;28;20397;-90
2023/11/21 03:20:48;;;;;;;18.23;11.00;;;;;;;;;;5077395;28;20048;-91
2023/11/21 03:23:13;;;;;;;18.67;10.98;;;;;;;;;;5069273;28;20024;-90
2023/11/21 03:25:39;;;;;;;17.67;9.50;;;;;;;;;;5060790;28;20031;-90
2023/11/21 03:28:04;;;;;;;16.02;10.13;;;;;;;;;;5051275;28;20032;-89
2023/11/21 03:30:30;;;;;;;19.27;10.65;;;;;;;;;;5043516;28;20041;-89
2023/11/21 03:32:55;;;;;;;14.65;9.77;;;;;;;;;;5051017;28;20036;-90
2023/11/21 03:35:21;;;;;;;15.85;9.80;;;;;;;;;;5061518;28;20028;-88
2023/11/21 03:37:47;;;;;;;19.10;10.10;;;;;;;;;;5069231;28;20064;-91
2023/11/21 03:40:13;;;;;;;15.32;10.05;;;;;;;;;;5056463;28;20051;-89
2023/11/21 03:42:39;;;;;;;15.10;9.40;;;;;;;;;;5049214;28;20032;-90
2023/11/21 03:45:06;;;;;;;17.25;9.98;;;;;;;;;;5062674;28;20029;-89
2023/11/21 03:47:31;;;;;;;14.68;9.85;;;;;;;;;;5068679;28;20025;-90
2023/11/21 03:49:57;;;;;;;15.40;9.80;;;;;;;;;;5049791;28;20028;-91
2023/11/21 03:52:22;;;;;;;16.85;9.32;;;;;;;;;;5068740;28;20020;-89
2023/11/21 03:54:48;;;;;;;13.65;9.02;;;;;;;;;;5059485;28;20028;-90
2023/11/21 03:57:13;;;;;;;16.15;9.50;;;;;;;;;;5061067;28;20395;-90
2023/11/21 03:59:43;;;;;;;13.68;8.52;;;;;;;;;;5056520;28;20371;-90
2023/11/21 04:02:08;;;;;;;15.27;9.75;;;;;;;;;;5083311;28;20069;-89
2023/11/21 04:04:35;;;;;;;13.80;9.07;;;;;;;;;;5069462;28;20120;-89
2023/11/21 04:07:00;;;;;;;14.68;9.68;;;;;;;;;;5076453;28;20435;-90
2023/11/21 04:09:26;;;;;;;12.55;8.80;;;;;;;;;;5076599;28;20025;-91
2023/11/21 04:11:52;;;;;;;13.40;9.15;;;;;;;;;;5069276;28;20041;-89
2023/11/21 04:14:18;;;;;;;18.23;9.02;;;;;;;;;;5060095;28;20033;-89
2023/11/21 04:16:43;;;;;;;15.68;9.88;;;;;;;;;;5060154;28;20036;-89
2023/11/21 04:19:14;;;;;;;16.33;9.30;;;;;;;;;;5072299;28;20093;-90
2023/11/21 04:21:42;;;;;;;19.63;9.77;;;;;;;;;;5057405;28;20024;-90
2023/11/21 04:24:07;;;;;;;14.68;9.20;;;;;;;;;;5049208;28;20028;-89
2023/11/21 04:26:33;;;;;;;13.27;9.13;;;;;;;;;;5060717;28;20526;-89
2023/11/21 04:28:58;;;;;;;19.45;9.98;;;;;;;;;;5068987;28;20096;-90
2023/11/21 04:31:24;;;;;;;15.20;9.38;;;;;;;;;;5052365;28;20040;-91
2023/11/21 04:33:49;;;;;;;16.00;9.75;;;;;;;;;;5054993;28;20089;-90
2023/11/21 04:36:15;;;;;;;14.55;9.40;;;;;;;;;;5041456;28;20028;-89
2023/11/21 04:38:40;;;;;;;15.73;9.15;;;;;;;;;;5060068;28;20436;-90
2023/11/21 04:41:06;;;;;;;13.52;8.77;;;;;;;;;;5045552;28;20494;-89
2023/11/21 04:43:32;;;;;;;12.32;8.57;;;;;;;;;;5066983;28;20028;-90
2023/11/21 04:45:58;;;;;;;16.60;9.10;;;;;;;;;;5077850;28;20024;-91
2023/11/21 04:48:23;;;;;;;14.48;9.15;;;;;;;;;;5077438;28;20090;-89
2023/11/21 04:50:48;;;;;;;12.82;8.40;;;;;;;;;;5060702;28;20085;-90
2023/11/21 04:53:14;;;;;;;12.65;8.30;;;;;;;;;;5070063;28;20175;-90
2023/11/21 04:55:41;;;;;;;13.43;8.98;;;;;;;;;;5066418;28;20040;-89
2023/11/21 04:58:08;;;;;;;13.70;8.82;;;;;;;;;;5070613;28;20025;-90
2023/11/21 05:00:33;;;;;;;12.27;8.50;;;;;;;;;;5066765;28;20039;-90
2023/11/21 05:03:01;;;;;;;15.52;9.90;;;;;;;;;;5050861;28;20425;-89
2023/11/21 05:05:26;;;;;;;12.93;9.05;;;;;;;;;;5053809;28;20039;-89
2023/11/21 05:07:53;;;;;;;12.00;8.32;;;;;;;;;;5063336;28;20028;-78
2023/11/21 05:10:19;;;;;;;12.38;8.18;;;;;;;;;;5074319;28;20414;-78
2023/11/21 05:12:46;;;;;;;14.05;9.25;;;;;;;;;;5072540;28;20028;-78
2023/11/21 05:15:14;;;;;;;14.20;9.30;;;;;;;;;;5069398;28;20059;-78
2023/11/21 05:17:48;;;;;;;13.90;8.40;;;;;;;;;;5080430;28;20050;-78
2023/11/21 05:20:17;;;;;;;15.27;9.18;;;;;;;;;;5070407;28;20032;-78
2023/11/21 05:22:43;;;;;;;12.45;9.15;;;;;;;;;;5073894;28;20103;-78
2023/11/21 05:25:09;;;;;;;14.50;8.90;;;;;;;;;;5072415;28;20120;-78
2023/11/21 05:27:35;;;;;;;11.27;8.18;;;;;;;;;;5072345;28;20107;-78
2023/11/21 05:30:05;;;;;;;13.15;8.30;;;;;;;;;;5066881;28;20501;-77
2023/11/21 05:32:31;;;;;;;11.88;8.40;;;;;;;;;;5063178;28;20495;-77
2023/11/21 05:34:57;;;;;;;11.50;7.80;;;;;;;;;;5053529;28;20036;-78
2023/11/21 05:37:23;;;;;;;12.00;7.65;;;;;;;;;;5074716;28;20029;-78
2023/11/21 05:39:49;;;;;;;12.38;8.55;;;;;;;;;;5053599;28;20644;-78
2023/11/21 05:42:14;;;;;;;14.55;9.00;;;;;;;;;;5050023;28;20062;-78
2023/11/21 05:44:42;;;;;;;14.20;8.27;;;;;;;;;;5054480;28;20041;-78
2023/11/21 05:47:08;;;;;;;11.85;7.82;;;;;;;;;;5065271;28;20413;-78
2023/11/21 05:49:34;;;;;;;11.40;7.57;;;;;;;;;;5055487;28;20067;-78
2023/11/21 05:51:59;;;;;;;12.50;8.23;;;;;;;;;;5072520;28;20028;-77
2023/11/21 05:54:25;;;;;;;12.13;8.00;;;;;;;;;;5058394;28;20028;-78
2023/11/21 05:56:51;;;;;;;14.20;7.95;;;;;;;;;;5068826;28;20459;-89
2023/11/21 05:59:17;;;;;;;12.18;8.18;;;;;;;;;;5068645;28;20067;-88
2023/11/21 06:01:43;;;;;;;12.23;8.20;;;;;;;;;;5054430;28;20498;-90
2023/11/21 06:04:09;;;;;;;11.35;8.00;;;;;;;;;;5065665;28;20029;-90
2023/11/21 06:06:35;;;;;;;10.57;7.78;;;;;;;;;;5050999;28;20033;-88
2023/11/21 06:09:01;;;;;;;12.52;7.95;;;;;;;;;;5068264;28;20032;-89
2023/11/21 06:11:26;;;;;;;11.45;7.28;;;;;;;;;;5053469;28;20031;-88
2023/11/21 06:13:53;;;;;;;11.10;7.75;;;;;;;;;;5040210;28;20028;-90
2023/11/21 06:16:19;;;;;;;13.30;8.07;;;;;;;;;;5087517;28;20052;-79
2023/11/21 06:18:46;;;;;;;18.10;8.55;;;;;;;;;;5069496;28;20028;-78
2023/11/21 06:21:11;;;;;;;15.88;8.30;;;;;;;;;;5066702;28;20028;-78
2023/11/21 06:23:37;;;;;;;14.85;8.27;;;;;;;;;;5071440;28;20024;-78
2023/11/21 06:26:04;;;;;;;12.75;8.00;;;;;;;;;;5069937;28;20025;-78
2023/11/21 06:28:30;;;;;;;12.70;7.80;;;;;;;;;;5073903;28;20450;-78
2023/11/21 06:30:57;;;;;;;10.27;7.45;;;;;;;;;;5063636;28;20070;-78
2023/11/21 06:33:23;;;;;;;11.93;7.20;;;;;;;;;;5070108;28;20036;-78
2023/11/21 06:35:49;;;;;;;13.27;7.78;;;;;;;;;;5064688;28;20367;-78
2023/11/21 06:38:15;;;;;;;10.27;7.55;;;;;;;;;;5071792;28;20074;-78
2023/11/21 06:40:41;;;;;;;12.95;7.93;;;;;;;;;;5069994;28;20464;-78
2023/11/21 06:43:11;;;;;;;11.27;7.95;;;;;;;;;;5066872;28;20135;-78
2023/11/21 06:45:36;;;;;;;11.57;7.80;;;;;;;;;;5060758;28;20056;-78
2023/11/21 06:48:02;;;;;;;11.98;8.20;;;;;;;;;;5068594;28;20478;-78
2023/11/21 06:50:28;;;;;;;14.70;8.55;;;;;;;;;;5065357;28;20037;-78
2023/11/21 06:52:54;;;;;;;13.70;7.88;;;;;;;;;;5063201;28;20032;-78
2023/11/21 06:55:20;;;;;;;10.88;7.40;;;;;;;;;;5066162;28;20029;-78
2023/11/21 06:57:46;;;;;;;10.95;7.93;;;;;;;;;;5067321;28;20032;-77
2023/11/21 07:00:13;;;;;;;11.00;6.95;;;;;;;;;;5069508;28;20024;-78
2023/11/21 07:02:39;;;;;;;11.93;7.55;;;;;;;;;;5061987;28;20113;-78
2023/11/21 07:05:05;;;;;;;12.73;7.75;;;;;;;;;;5072469;28;20025;-78
2023/11/21 07:07:31;;;;;;;12.32;7.97;;;;;;;;;;5069604;28;20032;-78
2023/11/21 07:09:56;;;;;;;12.77;8.05;;;;;;;;;;5064057;28;20025;-78
2023/11/21 07:12:23;;;;;;;13.40;8.15;;;;;;;;;;5052634;28;20025;-78
2023/11/21 07:14:49;;;;;;;13.80;9.30;;;;;;;;;;5061262;28;20056;-78
2023/11/21 07:17:17;;;;;;;13.35;8.63;;;;;;;;;;5061887;28;20059;-78
2023/11/21 07:19:42;;;;;;;13.90;8.13;;;;;;;;;;5070921;28;20116;-78
2023/11/21 07:22:08;;;;;;;14.93;8.70;;;;;;;;;;5070130;28;20060;-78
2023/11/21 07:24:34;;;;;;;14.85;8.35;;;;;;;;;;5077207;28;20036;-78
2023/11/21 07:27:00;;;;;;;14.90;9.15;;;;;;;;;;5067245;28;20453;-78
2023/11/21 07:29:26;;;;;;;12.95;8.68;;;;;;;;;;5086031;28;20043;-78
2023/11/21 07:31:53;;;;;;;14.23;8.35;;;;;;;;;;5064654;28;20383;-78
2023/11/21 07:34:20;;;;;;;12.75;8.27;;;;;;;;;;5067934;28;20024;-77
2023/11/21 07:36:46;;;;;;;10.93;7.82;;;;;;;;;;5078996;28;20115;-78
2023/11/21 07:39:11;;;;;;;13.10;8.15;;;;;;;;;;5065875;28;20119;-78
2023/11/21 07:41:38;;;;;;;11.50;7.93;;;;;;;;;;5038420;28;20052;-78
2023/11/21 07:44:03;;;;;;;14.40;8.40;;;;;;;;;;5053930;28;20021;-78
2023/11/21 07:46:29;;;;;;;15.00;8.65;;;;;;;;;;5056212;28;21272;-78
2023/11/21 07:48:55;;;;;;;18.42;9.98;;;;;;;;;;5054525;28;20062;-78
2023/11/21 07:51:20;;;;;;;13.60;8.32;;;;;;;;;;5069636;28;20423;-78
2023/11/21 07:53:46;;;;;;;14.35;8.65;;;;;;;;;;5039424;28;20077;-78
2023/11/21 07:56:12;;;;;;;13.57;8.27;;;;;;;;;;5053900;28;20039;-78
2023/11/21 07:58:41;;;;;;;16.83;9.30;;;;;;;;;;5071115;28;20028;-78
2023/11/21 08:01:07;;;;;;;16.08;8.93;;;;;;;;;;5073614;28;20067;-78
2023/11/21 08:03:35;;;;;;;17.58;9.40;;;;;;;;;;5066698;28;20500;-78
2023/11/21 08:06:03;;;;;;;15.88;9.23;;;;;;;;;;5069510;28;20035;-78
2023/11/21 08:08:28;;;;;;;18.35;9.30;;;;;;;;;;5072533;28;20024;-78
2023/11/21 08:10:57;;;;;;;17.90;9.65;;;;;;;;;;5067820;28;20498;-78
2023/11/21 08:13:27;;;;;;;18.33;11.07;;;;;;;;;;5068613;28;20037;-78
2023/11/21 08:16:01;;;;;;;19.83;9.80;;;;;;;;;;5066245;28;20024;-78
2023/11/21 08:18:27;;;;;;;15.05;10.27;;;;;;;;;;5069638;28;20028;-89
2023/11/21 08:20:54;;;;;;;18.90;10.30;;;;;;;;;;5054420;28;20039;-88
2023/11/21 08:23:20;;;;;;;16.02;9.43;;;;;;;;;;5040498;28;20040;-89
2023/11/21 08:25:46;;;;;;;16.80;9.77;;;;;;;;;;5069816;28;20482;-90
2023/11/21 08:28:14;;;;;;;17.35;10.35;;;;;;;;;;5063167;28;20100;-88
2023/11/21 08:30:41;;;;;;;16.73;9.25;;;;;;;;;;5069322;28;20027;-89
2023/11/21 08:33:08;;;;;;;17.02;9.90;;;;;;;;;;5067917;28;20039;-89
2023/11/21 08:35:33;;;;;;;15.48;9.60;;;;;;;;;;5071663;28;20402;-88
2023/11/21 08:37:59;;;;;;;15.90;9.43;;;;;;;;;;5055115;28;20028;-90
2023/11/21 08:40:25;;;;;;;16.20;8.90;;;;;;;;;;5058373;28;20096;-90
2023/11/21 08:42:52;;;;;;;19.38;9.48;;;;;;;;;;5054712;28;20029;-90
2023/11/21 08:45:18;;;;;;;24.63;12.52;;;;;;;;;;5064897;28;20025;-92
2023/11/21 08:47:44;;;;;;;20.27;11.57;;;;;;;;;;5073528;28;20078;-89
2023/11/21 08:50:11;;;;;;;19.77;11.60;;;;;;;;;;5069481;28;20028;-88
2023/11/21 08:52:40;;;;;;;19.73;10.25;;;;;;;;;;5072572;28;20501;-88
2023/11/21 08:55:12;;;;;;;16.40;10.52;;;;;;;;;;5056601;28;20028;-89
2023/11/21 08:57:38;;;;;;;18.92;10.48;;;;;;;;;;5067027;28;20037;-89
2023/11/21 09:00:07;;;;;;;16.60;9.93;;;;;;;;;;5072511;28;20029;-89
2023/11/21 09:02:33;;;;;;;16.40;9.73;;;;;;;;;;5070074;28;20039;-90
2023/11/21 09:05:02;;;;;;;19.60;10.88;;;;;;;;;;5073441;28;20020;-89
2023/11/21 09:07:28;;;;;;;20.70;10.00;;;;;;;;;;5066024;28;20029;-90
2023/11/21 09:09:54;;;;;;;17.80;10.10;;;;;;;;;;5072012;28;20089;-89
2023/11/21 09:12:20;;;;;;;19.83;10.40;;;;;;;;;;5055832;28;20126;-89
2023/11/21 09:14:46;;;;;;;23.40;11.25;;;;;;;;;;5030720;28;20048;-90
2023/11/21 09:17:11;;;;;;;20.55;11.13;;;;;;;;;;5045182;28;20033;-89
2023/11/21 09:19:37;;;;;;;20.40;10.35;;;;;;;;;;5032876;28;20037;-90
2023/11/21 09:22:04;;;;;;;18.73;10.30;;;;;;;;;;5038331;28;20025;-90
2023/11/21 09:24:33;;;;;;;19.70;10.48;;;;;;;;;;5063492;28;20033;-91
2023/11/21 09:26:59;;;;;;;21.00;10.32;;;;;;;;;;5062205;28;20045;-90
2023/11/21 09:29:28;;;;;;;18.95;10.65;;;;;;;;;;5047870;28;20036;-89
2023/11/21 09:31:55;;;;;;;20.42;10.20;;;;;;;;;;5065873;28;20105;-90
2023/11/21 09:34:21;;;;;;;16.92;9.55;;;;;;;;;;5064126;28;20024;-89
2023/11/21 09:36:47;;;;;;;15.77;9.45;;;;;;;;;;5079807;28;20029;-89
2023/11/21 09:39:14;;;;;;;15.52;9.27;;;;;;;;;;5050579;28;20046;-90
2023/11/21 09:41:46;;;;;;;16.95;9.20;;;;;;;;;;5061165;28;20055;-91
2023/11/21 09:44:13;;;;;;;17.67;9.25;;;;;;;;;;5066399;28;20028;-89
2023/11/21 09:46:42;;;;;;;19.00;9.30;;;;;;;;;;5059300;28;20031;-89
2023/11/21 09:49:13;;;;;;;15.00;8.25;;;;;;;;;;5063979;28;20032;-90
2023/11/21 09:51:49;;;;;;;14.35;7.60;;;;;;;;;;5065542;28;20032;-90
2023/11/21 09:54:16;;;;;;;12.35;6.80;;;;;;;;;;5061622;28;20040;-88
2023/11/21 09:56:42;;;;;;;11.00;6.43;;;;;;;;;;5064744;28;20111;-90
2023/11/21 09:59:13;;;;;;;15.23;7.50;;;;;;;;;;5047603;28;20028;-89
2023/11/21 10:01:39;;;;;;;12.50;6.30;;;;;;;;;;5064837;28;20127;-89
2023/11/21 10:04:11;;;;;;;10.63;6.50;;;;;;;;;;5084818;28;20028;-92
2023/11/21 10:06:38;;;;;;;12.07;6.63;;;;;;;;;;5049464;28;20040;-88
2023/11/21 10:09:11;;;;;;;13.00;6.85;;;;;;;;;;5046493;28;20123;-89
2023/11/21 10:11:41;;;;;;;11.55;6.10;;;;;;;;;;5086198;28;20043;-91
2023/11/21 10:14:10;;;;;;;12.82;6.85;;;;;;;;;;5064286;28;20041;-89
2023/11/21 10:16:39;;;;;;;12.40;6.85;;;;;;;;;;5043084;28;20147;-90
2023/11/21 10:19:06;;;;;;;12.13;6.68;;;;;;;;;;5063612;28;20462;-90
2023/11/21 10:21:35;;;;;;;11.52;6.63;;;;;;;;;;5066291;28;20034;-90
2023/11/21 10:24:00;;;;;;;13.65;6.32;;;;;;;;;;5063675;28;20418;-89
2023/11/21 10:26:28;;;;;;;11.55;6.65;;;;;;;;;;5059921;28;20025;-90
2023/11/21 10:29:01;;;;;;;15.63;7.43;;;;;;;;;;5066244;28;20062;-89
2023/11/21 10:31:36;;;;;;;12.18;7.60;;;;;;;;;;5032536;28;20037;-90
2023/11/21 10:34:18;;;;;;;12.32;7.68;;;;;;;;;;5050529;28;20040;-90
2023/11/21 10:36:44;;;;;;;12.38;7.97;;;;;;;;;;5054832;28;20029;-89
2023/11/21 10:39:17;;;;;;;12.02;7.65;;;;;;;;;;5058984;28;20044;-89
2023/11/21 10:41:45;;;;;;;13.00;7.75;;;;;;;;;;5066961;28;20062;-89
2023/11/21 10:44:14;;;;;;;15.07;8.25;;;;;;;;;;5045668;28;20154;-90
2023/11/21 10:46:40;;;;;;;15.20;9.00;;;;;;;;;;5045965;28;20051;-91
2023/11/21 10:49:06;;;;;;;14.07;8.65;;;;;;;;;;5064685;28;20646;-89
2023/11/21 10:51:31;;;;;;;17.25;9.30;;;;;;;;;;5049380;28;20189;-89
2023/11/21 10:53:59;;;;;;;14.70;8.85;;;;;;;;;;5029000;28;20087;-89
2023/11/21 10:56:27;;;;;;;14.70;8.27;;;;;;;;;;5048524;28;20048;-90
2023/11/21 10:58:52;;;;;;;15.02;8.63;;;;;;;;;;5040814;28;20071;-90
2023/11/21 11:01:21;;;;;;;14.10;8.18;;;;;;;;;;5058059;28;20482;-89
2023/11/21 11:03:47;;;;;;;15.38;8.68;;;;;;;;;;5045644;28;20040;-89
2023/11/21 11:06:13;;;;;;;17.45;9.23;;;;;;;;;;5060693;28;20040;-90
2023/11/21 11:08:40;;;;;;;20.92;9.70;;;;;;;;;;5059338;28;20036;-89
2023/11/21 11:11:06;;;;;;;17.08;9.13;;;;;;;;;;5043776;28;20021;-89
2023/11/21 11:13:32;;;;;;;16.90;9.82;;;;;;;;;;5075675;28;20032;-90
2023/11/21 11:16:01;;;;;;;14.43;8.65;;;;;;;;;;5058121;28;20082;-89
2023/11/21 11:18:30;;;;;;;17.20;9.70;;;;;;;;;;5092672;28;20039;-90
2023/11/21 11:21:14;;;;;;;16.20;8.43;;;;;;;;;;5058264;28;20479;-89
2023/11/21 11:23:55;;;;;;;15.57;8.45;;;;;;;;;;5060704;28;20479;-89
2023/11/21 11:26:37;;;;;;;15.70;8.65;;;;;;;;;;5062636;28;20111;-89
2023/11/21 11:29:15;;;;;;;14.98;8.13;;;;;;;;;;5063708;28;20032;-88
2023/11/21 11:32:04;;;;;;;15.45;8.35;;;;;;;;;;5055512;28;20042;-90
2023/11/21 11:34:34;;;;;;;17.33;9.30;;;;;;;;;;5064707;28;20060;-89
2023/11/21 11:37:02;;;;;;;17.67;9.60;;;;;;;;;;5064773;28;20024;-90
2023/11/21 11:39:38;;;;;;;18.67;9.75;;;;;;;;;;5071297;28;20059;-90
2023/11/21 11:42:08;;;;;;;19.02;10.20;;;;;;;;;;5051565;28;20049;-89
2023/11/21 11:44:46;;;;;;;18.60;10.38;;;;;;;;;;5076972;28;20078;-89
2023/11/21 11:47:33;;;;;;;19.85;10.38;;;;;;;;;;5070977;28;20048;-89
2023/11/21 11:50:13;;;;;;;17.38;9.82;;;;;;;;;;5065435;28;20052;-88
2023/11/21 11:52:43;;;;;;;19.08;10.02;;;;;;;;;;5070574;28;20028;-88
2023/11/21 11:55:13;;;;;;;20.95;10.40;;;;;;;;;;5055549;28;20075;-88
2023/11/21 11:57:40;;;;;;;20.83;10.68;;;;;;;;;;5065332;28;20028;-87
2023/11/21 12:00:11;;;;;;;19.30;10.77;;;;;;;;;;5038585;28;20487;-87
2023/11/21 12:02:39;;;;;;;20.20;11.00;;;;;;;;;;5066964;28;20024;-87
2023/11/21 12:05:15;;;;;;;17.48;10.60;;;;;;;;;;5068401;28;20032;-88
2023/11/21 12:07:43;;;;;;;17.63;9.90;;;;;;;;;;5062155;28;20036;-78
2023/11/21 12:10:12;;;;;;;18.67;10.57;;;;;;;;;;5051675;28;20060;-77
2023/11/21 12:12:38;;;;;;;17.52;10.57;;;;;;;;;;5069949;28;20082;-78
2023/11/21 12:15:05;;;;;;;19.58;10.95;;;;;;;;;;5036360;28;20024;-77
2023/11/21 12:17:30;;;;;;;20.17;10.75;;;;;;;;;;5069821;28;20079;-78
2023/11/21 12:20:13;;;;;;;16.67;9.75;;;;;;;;;;5046169;28;20545;-77
2023/11/21 12:23:03;;;;;;;17.63;9.43;;;;;;;;;;5056211;28;20395;-77
2023/11/21 12:25:31;;;;;;;16.10;9.30;;;;;;;;;;5055209;28;20410;-77
2023/11/21 12:27:58;;;;;;;15.20;9.02;;;;;;;;;;5065231;28;20020;-77
2023/11/21 12:30:28;;;;;;;15.35;8.57;;;;;;;;;;5068691;28;20031;-77
2023/11/21 12:32:57;;;;;;;14.65;8.90;;;;;;;;;;5073086;28;20098;-77
2023/11/21 12:35:28;;;;;;;17.00;9.35;;;;;;;;;;5054122;28;20029;-78
2023/11/21 12:37:57;;;;;;;18.17;9.25;;;;;;;;;;5064972;28;20107;-78
2023/11/21 12:40:23;;;;;;;17.38;9.52;;;;;;;;;;5070433;28;20063;-77
2023/11/21 12:42:53;;;;;;;17.27;9.43;;;;;;;;;;5069037;28;20112;-78
2023/11/21 12:45:22;;;;;;;15.88;9.10;;;;;;;;;;5066389;28;20390;-78
2023/11/21 12:47:52;;;;;;;14.75;8.48;;;;;;;;;;5067602;28;20544;-77
2023/11/21 12:50:28;;;;;;;17.58;9.85;;;;;;;;;;5083201;28;20036;-77
2023/11/21 12:52:57;;;;;;;16.13;9.02;;;;;;;;;;5051997;28;20033;-77
2023/11/21 12:55:26;;;;;;;16.27;8.82;;;;;;;;;;5073122;28;20037;-78
2023/11/21 12:57:57;;;;;;;17.90;9.02;;;;;;;;;;5072092;28;20414;-77
2023/11/21 13:00:36;;;;;;;15.18;8.40;;;;;;;;;;5065815;28;20017;-77
2023/11/21 13:03:03;;;;;;;16.38;8.00;;;;;;;;;;5068558;28;20034;-77
2023/11/21 13:05:30;;;;;;;14.77;7.78;;;;;;;;;;5066377;28;20037;-77
2023/11/21 13:07:58;;;;;;;16.50;7.72;;;;;;;;;;5071590;28;20036;-78
2023/11/21 13:10:30;;;;;;;14.15;7.18;;;;;;;;;;5074816;28;20087;-77
2023/11/21 13:12:58;;;;;;;14.05;7.15;;;;;;;;;;5061862;28;20028;-77
2023/11/21 13:15:25;;;;;;;11.93;6.68;;;;;;;;;;5064642;28;20033;-77
2023/11/21 13:17:51;;;;;;;13.68;7.18;;;;;;;;;;5064177;28;20055;-78
2023/11/21 13:20:17;;;;;;;13.32;6.40;;;;;;;;;;5073700;28;20475;-77
2023/11/21 13:23:11;;;;;;;13.00;6.63;;;;;;;;;;5068103;28;20040;-77
2023/11/21 13:25:41;;;;;;;11.18;6.05;;;;;;;;;;5065066;28;20028;-78
2023/11/21 13:28:07;;;;;;;11.45;5.95;;;;;;;;;;5068094;28;20177;-88
2023/11/21 13:30:33;;;;;;;9.57;5.35;;;;;;;;;;5078149;28;20033;-88
2023/11/21 13:33:01;;;;;;;11.10;5.88;;;;;;;;;;5072190;28;20028;-87
2023/11/21 13:35:47;;;;;;;10.77;5.93;;;;;;;;;;5054205;28;20043;-88
2023/11/21 13:38:16;;;;;;;10.55;5.68;;;;;;;;;;5039952;28;20067;-86
2023/11/21 13:40:48;;;;;;;10.43;5.57;;;;;;;;;;5062838;28;20028;-88
2023/11/21 13:43:15;;;;;;;10.40;5.82;;;;;;;;;;5068589;28;20051;-87
2023/11/21 13:45:42;;;;;;;12.15;5.97;;;;;;;;;;5071744;28;20082;-87
2023/11/21 13:48:10;;;;;;;10.13;5.20;;;;;;;;;;5055405;28;20027;-88
2023/11/21 13:50:44;;;;;;;14.00;6.35;;;;;;;;;;5066730;28;20094;-88
2023/11/21 13:53:22;;;;;;;12.55;7.20;;;;;;;;;;5049456;28;20044;-87
2023/11/21 13:55:54;;;;;;;15.13;7.63;;;;;;;;;;5066839;28;20024;-88
2023/11/21 13:58:23;;;;;;;13.50;7.75;;;;;;;;;;5069166;28;20025;-88
2023/11/21 14:00:56;;;;;;;12.13;6.57;;;;;;;;;;5068655;28;20024;-87
2023/11/21 14:03:22;;;;;;;11.88;6.45;;;;;;;;;;5050213;28;20056;-87
2023/11/21 14:05:51;;;;;;;13.52;6.43;;;;;;;;;;5072705;28;20024;-87
2023/11/21 14:08:28;;;;;;;12.57;6.85;;;;;;;;;;5066928;28;20036;-86
2023/11/21 14:10:59;;;;;;;14.65;7.50;;;;;;;;;;5041002;28;20021;-87
2023/11/21 14:13:25;;;;;;;16.70;7.55;;;;;;;;;;5056852;28;20033;-88
2023/11/21 14:15:54;;;;;;;12.25;6.85;;;;;;;;;;5039028;28;20066;-88
2023/11/21 14:18:27;;;;;;;13.88;7.45;;;;;;;;;;5051641;28;20493;-88
2023/11/21 14:20:52;;;;;;;;;;;;;;;;;;5057666;28;20094;-88
2023/11/21 14:23:18;;;;;;;14.80;7.10;;;;;;;;;;5050739;28;19997;-86
2023/11/21 14:25:43;;;;;;;15.00;7.88;;;;;;;;;;5062930;28;20101;-88
2023/11/21 14:28:11;;;;;;;14.15;8.02;;;;;;;;;;5067959;28;20043;-88